sensor_id;sensor_type;location;lat;lon;timestamp;P1;durP1;ratioP1;P2;durP2;ratioP2
59468;SDS011;45277;52.768;18.262;2023-08-20T00:00:27;27.67;;;21.30;;
59468;SDS011;45277;52.768;18.262;2023-08-20T00:02:19;27.20;;;19.88;;
59468;SDS011;45277;52.768;18.262;2023-08-20T00:03:54;24.05;;;19.83;;
59468;SDS011;45277;52.768;18.262;2023-08-20T00:05:26;31.50;;;18.73;;
59468;SDS011;45277;52.768;18.262;2023-08-20T00:06:58;25.25;;;18.92;;
59468;SDS011;45277;52.768;18.262;2023-08-20T00:08:30;26.70;;;19.20;;
59468;SDS011;45277;52.768;18.262;2023-08-20T00:10:01;26.73;;;18.63;;
59468;SDS011;45277;52.768;18.262;2023-08-20T00:11:36;26.98;;;18.52;;
59468;SDS011;45277;52.768;18.262;2023-08-20T00:13:07;24.92;;;17.85;;
59468;SDS011;45277;52.768;18.262;2023-08-20T00:14:55;26.60;;;18.10;;
59468;SDS011;45277;52.768;18.262;2023-08-20T00:16:36;25.85;;;17.70;;
59468;SDS011;45277;52.768;18.262;2023-08-20T00:18:07;27.50;;;20.08;;
59468;SDS011;45277;52.768;18.262;2023-08-20T00:19:39;24.08;;;18.42;;
59468;SDS011;45277;52.768;18.262;2023-08-20T00:21:11;21.83;;;17.15;;
59468;SDS011;45277;52.768;18.262;2023-08-20T00:22:44;22.85;;;18.30;;
59468;SDS011;45277;52.768;18.262;2023-08-20T00:24:17;23.77;;;17.58;;
59468;SDS011;45277;52.768;18.262;2023-08-20T00:25:49;23.67;;;17.75;;
59468;SDS011;45277;52.768;18.262;2023-08-20T00:27:21;25.63;;;17.70;;
59468;SDS011;45277;52.768;18.262;2023-08-20T00:28:52;26.30;;;16.98;;
59468;SDS011;45277;52.768;18.262;2023-08-20T00:30:24;21.90;;;17.15;;
59468;SDS011;45277;52.768;18.262;2023-08-20T00:31:55;24.73;;;17.52;;
59468;SDS011;45277;52.768;18.262;2023-08-20T00:33:26;20.48;;;17.10;;
59468;SDS011;45277;52.768;18.262;2023-08-20T00:34:58;22.67;;;16.67;;
59468;SDS011;45277;52.768;18.262;2023-08-20T00:36:29;23.88;;;17.38;;
59468;SDS011;45277;52.768;18.262;2023-08-20T00:38:00;21.98;;;16.33;;
59468;SDS011;45277;52.768;18.262;2023-08-20T00:39:33;19.63;;;17.48;;
59468;SDS011;45277;52.768;18.262;2023-08-20T00:41:04;21.30;;;15.80;;
59468;SDS011;45277;52.768;18.262;2023-08-20T00:42:36;23.02;;;17.58;;
59468;SDS011;45277;52.768;18.262;2023-08-20T00:44:09;24.08;;;16.83;;
59468;SDS011;45277;52.768;18.262;2023-08-20T00:45:40;21.60;;;17.35;;
59468;SDS011;45277;52.768;18.262;2023-08-20T00:47:13;21.45;;;16.85;;
59468;SDS011;45277;52.768;18.262;2023-08-20T00:48:45;24.80;;;17.85;;
59468;SDS011;45277;52.768;18.262;2023-08-20T00:50:17;20.20;;;17.08;;
59468;SDS011;45277;52.768;18.262;2023-08-20T00:51:50;20.20;;;17.85;;
59468;SDS011;45277;52.768;18.262;2023-08-20T00:53:21;21.73;;;17.27;;
59468;SDS011;45277;52.768;18.262;2023-08-20T00:54:53;22.45;;;17.23;;
59468;SDS011;45277;52.768;18.262;2023-08-20T00:56:25;20.15;;;16.98;;
59468;SDS011;45277;52.768;18.262;2023-08-20T00:57:57;23.23;;;17.25;;
59468;SDS011;45277;52.768;18.262;2023-08-20T00:59:29;22.20;;;16.67;;
59468;SDS011;45277;52.768;18.262;2023-08-20T01:01:02;20.52;;;16.98;;
59468;SDS011;45277;52.768;18.262;2023-08-20T01:02:33;22.10;;;16.45;;
59468;SDS011;45277;52.768;18.262;2023-08-20T01:04:05;24.55;;;17.48;;
59468;SDS011;45277;52.768;18.262;2023-08-20T01:05:39;20.85;;;17.17;;
59468;SDS011;45277;52.768;18.262;2023-08-20T01:07:20;24.92;;;17.35;;
59468;SDS011;45277;52.768;18.262;2023-08-20T01:08:57;21.30;;;17.30;;
59468;SDS011;45277;52.768;18.262;2023-08-20T01:10:38;23.20;;;16.85;;
59468;SDS011;45277;52.768;18.262;2023-08-20T01:12:19;22.38;;;18.10;;
59468;SDS011;45277;52.768;18.262;2023-08-20T01:13:53;21.70;;;17.60;;
59468;SDS011;45277;52.768;18.262;2023-08-20T01:15:25;22.70;;;18.08;;
59468;SDS011;45277;52.768;18.262;2023-08-20T01:16:57;21.42;;;18.42;;
59468;SDS011;45277;52.768;18.262;2023-08-20T01:18:28;23.67;;;18.35;;
59468;SDS011;45277;52.768;18.262;2023-08-20T01:20:00;27.25;;;18.75;;
59468;SDS011;45277;52.768;18.262;2023-08-20T01:21:37;21.48;;;17.23;;
59468;SDS011;45277;52.768;18.262;2023-08-20T01:28:48;29.88;;;18.23;;
59468;SDS011;45277;52.768;18.262;2023-08-20T01:30:20;24.33;;;17.58;;
59468;SDS011;45277;52.768;18.262;2023-08-20T01:31:53;24.75;;;17.75;;
59468;SDS011;45277;52.768;18.262;2023-08-20T01:33:25;21.88;;;17.33;;
59468;SDS011;45277;52.768;18.262;2023-08-20T01:34:57;22.75;;;18.08;;
59468;SDS011;45277;52.768;18.262;2023-08-20T01:36:28;21.80;;;17.80;;
59468;SDS011;45277;52.768;18.262;2023-08-20T01:38:00;20.67;;;18.08;;
59468;SDS011;45277;52.768;18.262;2023-08-20T01:39:31;21.65;;;17.98;;
59468;SDS011;45277;52.768;18.262;2023-08-20T01:41:02;21.08;;;17.08;;
59468;SDS011;45277;52.768;18.262;2023-08-20T01:42:35;22.67;;;17.75;;
59468;SDS011;45277;52.768;18.262;2023-08-20T01:44:07;23.65;;;18.70;;
59468;SDS011;45277;52.768;18.262;2023-08-20T01:45:38;23.92;;;19.00;;
59468;SDS011;45277;52.768;18.262;2023-08-20T01:47:10;22.85;;;17.95;;
59468;SDS011;45277;52.768;18.262;2023-08-20T01:48:41;26.58;;;18.88;;
59468;SDS011;45277;52.768;18.262;2023-08-20T01:50:13;25.50;;;19.63;;
59468;SDS011;45277;52.768;18.262;2023-08-20T01:51:44;24.00;;;19.48;;
59468;SDS011;45277;52.768;18.262;2023-08-20T01:53:15;26.05;;;19.55;;
59468;SDS011;45277;52.768;18.262;2023-08-20T01:54:48;25.00;;;19.20;;
59468;SDS011;45277;52.768;18.262;2023-08-20T01:56:20;26.45;;;20.05;;
59468;SDS011;45277;52.768;18.262;2023-08-20T01:57:51;24.73;;;19.30;;
59468;SDS011;45277;52.768;18.262;2023-08-20T01:59:22;24.10;;;19.35;;
59468;SDS011;45277;52.768;18.262;2023-08-20T02:00:54;27.98;;;20.08;;
59468;SDS011;45277;52.768;18.262;2023-08-20T02:02:26;26.95;;;20.15;;
59468;SDS011;45277;52.768;18.262;2023-08-20T02:03:57;27.35;;;20.73;;
59468;SDS011;45277;52.768;18.262;2023-08-20T02:05:29;28.73;;;21.33;;
59468;SDS011;45277;52.768;18.262;2023-08-20T02:07:00;32.42;;;22.00;;
59468;SDS011;45277;52.768;18.262;2023-08-20T02:08:31;32.70;;;21.25;;
59468;SDS011;45277;52.768;18.262;2023-08-20T02:10:03;29.58;;;21.73;;
59468;SDS011;45277;52.768;18.262;2023-08-20T02:11:35;29.73;;;21.38;;
59468;SDS011;45277;52.768;18.262;2023-08-20T02:13:06;29.58;;;22.33;;
59468;SDS011;45277;52.768;18.262;2023-08-20T02:14:38;27.50;;;22.08;;
59468;SDS011;45277;52.768;18.262;2023-08-20T02:16:09;27.52;;;22.92;;
59468;SDS011;45277;52.768;18.262;2023-08-20T02:17:40;27.60;;;21.88;;
59468;SDS011;45277;52.768;18.262;2023-08-20T02:19:12;32.10;;;23.35;;
59468;SDS011;45277;52.768;18.262;2023-08-20T02:20:44;26.73;;;21.38;;
59468;SDS011;45277;52.768;18.262;2023-08-20T02:22:15;29.15;;;22.48;;
59468;SDS011;45277;52.768;18.262;2023-08-20T02:23:48;28.77;;;21.77;;
59468;SDS011;45277;52.768;18.262;2023-08-20T02:25:19;31.23;;;21.92;;
59468;SDS011;45277;52.768;18.262;2023-08-20T02:26:50;29.38;;;22.20;;
59468;SDS011;45277;52.768;18.262;2023-08-20T02:28:22;29.58;;;23.52;;
59468;SDS011;45277;52.768;18.262;2023-08-20T02:29:53;30.52;;;21.60;;
59468;SDS011;45277;52.768;18.262;2023-08-20T02:31:24;27.45;;;22.80;;
59468;SDS011;45277;52.768;18.262;2023-08-20T02:32:56;28.73;;;20.83;;
59468;SDS011;45277;52.768;18.262;2023-08-20T02:34:27;27.38;;;20.40;;
59468;SDS011;45277;52.768;18.262;2023-08-20T02:36:02;26.10;;;20.65;;
59468;SDS011;45277;52.768;18.262;2023-08-20T02:37:34;26.27;;;19.90;;
59468;SDS011;45277;52.768;18.262;2023-08-20T02:39:06;35.03;;;21.45;;
59468;SDS011;45277;52.768;18.262;2023-08-20T02:40:41;25.85;;;19.02;;
59468;SDS011;45277;52.768;18.262;2023-08-20T02:42:13;26.13;;;19.48;;
59468;SDS011;45277;52.768;18.262;2023-08-20T02:43:44;26.60;;;19.20;;
59468;SDS011;45277;52.768;18.262;2023-08-20T02:45:16;24.33;;;18.17;;
59468;SDS011;45277;52.768;18.262;2023-08-20T02:46:47;23.65;;;18.63;;
59468;SDS011;45277;52.768;18.262;2023-08-20T02:48:19;23.58;;;18.48;;
59468;SDS011;45277;52.768;18.262;2023-08-20T02:49:50;25.58;;;18.15;;
59468;SDS011;45277;52.768;18.262;2023-08-20T02:51:22;21.83;;;17.48;;
59468;SDS011;45277;52.768;18.262;2023-08-20T02:52:53;24.42;;;17.35;;
59468;SDS011;45277;52.768;18.262;2023-08-20T02:54:25;25.77;;;17.05;;
59468;SDS011;45277;52.768;18.262;2023-08-20T02:55:57;22.40;;;16.92;;
59468;SDS011;45277;52.768;18.262;2023-08-20T02:57:28;21.23;;;17.00;;
59468;SDS011;45277;52.768;18.262;2023-08-20T02:58:59;21.50;;;16.70;;
59468;SDS011;45277;52.768;18.262;2023-08-20T03:00:30;21.38;;;16.63;;
59468;SDS011;45277;52.768;18.262;2023-08-20T03:02:02;25.10;;;16.25;;
59468;SDS011;45277;52.768;18.262;2023-08-20T03:03:34;22.88;;;15.93;;
59468;SDS011;45277;52.768;18.262;2023-08-20T03:05:05;26.05;;;16.63;;
59468;SDS011;45277;52.768;18.262;2023-08-20T03:06:37;22.08;;;15.70;;
59468;SDS011;45277;52.768;18.262;2023-08-20T03:08:08;21.27;;;15.80;;
59468;SDS011;45277;52.768;18.262;2023-08-20T03:09:40;21.48;;;16.60;;
59468;SDS011;45277;52.768;18.262;2023-08-20T03:11:12;23.27;;;16.27;;
59468;SDS011;45277;52.768;18.262;2023-08-20T03:12:43;19.58;;;16.60;;
59468;SDS011;45277;52.768;18.262;2023-08-20T03:14:15;21.38;;;16.58;;
59468;SDS011;45277;52.768;18.262;2023-08-20T03:15:46;24.83;;;16.30;;
59468;SDS011;45277;52.768;18.262;2023-08-20T03:17:17;21.95;;;16.98;;
59468;SDS011;45277;52.768;18.262;2023-08-20T03:18:49;21.45;;;16.65;;
59468;SDS011;45277;52.768;18.262;2023-08-20T03:20:20;24.08;;;16.98;;
59468;SDS011;45277;52.768;18.262;2023-08-20T03:21:51;20.65;;;16.55;;
59468;SDS011;45277;52.768;18.262;2023-08-20T03:23:23;25.27;;;18.02;;
59468;SDS011;45277;52.768;18.262;2023-08-20T03:24:54;21.35;;;17.25;;
59468;SDS011;45277;52.768;18.262;2023-08-20T03:26:26;20.48;;;17.70;;
59468;SDS011;45277;52.768;18.262;2023-08-20T03:27:57;25.17;;;18.70;;
59468;SDS011;45277;52.768;18.262;2023-08-20T03:29:29;22.45;;;17.55;;
59468;SDS011;45277;52.768;18.262;2023-08-20T03:31:00;22.42;;;16.85;;
59468;SDS011;45277;52.768;18.262;2023-08-20T03:32:32;19.67;;;15.85;;
59468;SDS011;45277;52.768;18.262;2023-08-20T03:34:04;25.45;;;17.58;;
59468;SDS011;45277;52.768;18.262;2023-08-20T03:35:35;22.60;;;17.45;;
59468;SDS011;45277;52.768;18.262;2023-08-20T03:37:07;21.60;;;17.13;;
59468;SDS011;45277;52.768;18.262;2023-08-20T03:38:38;21.88;;;17.65;;
59468;SDS011;45277;52.768;18.262;2023-08-20T03:40:09;19.95;;;17.67;;
59468;SDS011;45277;52.768;18.262;2023-08-20T03:41:41;21.27;;;17.00;;
59468;SDS011;45277;52.768;18.262;2023-08-20T03:43:12;22.23;;;17.40;;
59468;SDS011;45277;52.768;18.262;2023-08-20T03:44:44;22.35;;;17.38;;
59468;SDS011;45277;52.768;18.262;2023-08-20T03:46:15;24.30;;;17.75;;
59468;SDS011;45277;52.768;18.262;2023-08-20T03:47:47;24.40;;;18.20;;
59468;SDS011;45277;52.768;18.262;2023-08-20T03:49:18;22.55;;;18.88;;
59468;SDS011;45277;52.768;18.262;2023-08-20T03:50:50;26.00;;;19.30;;
59468;SDS011;45277;52.768;18.262;2023-08-20T03:52:21;27.98;;;19.67;;
59468;SDS011;45277;52.768;18.262;2023-08-20T03:53:52;24.10;;;19.20;;
59468;SDS011;45277;52.768;18.262;2023-08-20T03:55:24;27.60;;;20.88;;
59468;SDS011;45277;52.768;18.262;2023-08-20T03:56:55;24.70;;;19.63;;
59468;SDS011;45277;52.768;18.262;2023-08-20T03:58:26;28.67;;;20.92;;
59468;SDS011;45277;52.768;18.262;2023-08-20T03:59:58;26.95;;;20.73;;
59468;SDS011;45277;52.768;18.262;2023-08-20T04:01:29;27.52;;;20.42;;
59468;SDS011;45277;52.768;18.262;2023-08-20T04:03:01;25.63;;;20.73;;
59468;SDS011;45277;52.768;18.262;2023-08-20T04:04:32;28.42;;;21.65;;
59468;SDS011;45277;52.768;18.262;2023-08-20T04:06:04;27.27;;;21.27;;
59468;SDS011;45277;52.768;18.262;2023-08-20T04:07:35;31.15;;;21.52;;
59468;SDS011;45277;52.768;18.262;2023-08-20T04:09:07;27.42;;;20.02;;
59468;SDS011;45277;52.768;18.262;2023-08-20T04:10:45;25.15;;;20.00;;
59468;SDS011;45277;52.768;18.262;2023-08-20T04:12:17;29.40;;;19.55;;
59468;SDS011;45277;52.768;18.262;2023-08-20T04:13:49;28.95;;;20.73;;
59468;SDS011;45277;52.768;18.262;2023-08-20T04:15:20;32.85;;;20.52;;
59468;SDS011;45277;52.768;18.262;2023-08-20T04:16:51;28.67;;;19.92;;
59468;SDS011;45277;52.768;18.262;2023-08-20T04:18:23;32.55;;;19.13;;
59468;SDS011;45277;52.768;18.262;2023-08-20T04:19:54;28.55;;;19.80;;
59468;SDS011;45277;52.768;18.262;2023-08-20T04:21:25;24.15;;;18.95;;
59468;SDS011;45277;52.768;18.262;2023-08-20T04:22:57;28.92;;;19.42;;
59468;SDS011;45277;52.768;18.262;2023-08-20T04:24:28;24.92;;;18.95;;
59468;SDS011;45277;52.768;18.262;2023-08-20T04:26:00;25.63;;;18.70;;
59468;SDS011;45277;52.768;18.262;2023-08-20T04:27:31;29.98;;;19.35;;
59468;SDS011;45277;52.768;18.262;2023-08-20T04:29:03;26.23;;;18.13;;
59468;SDS011;45277;52.768;18.262;2023-08-20T04:30:34;25.38;;;19.13;;
59468;SDS011;45277;52.768;18.262;2023-08-20T04:32:06;22.67;;;17.63;;
59468;SDS011;45277;52.768;18.262;2023-08-20T04:33:38;25.27;;;18.38;;
59468;SDS011;45277;52.768;18.262;2023-08-20T04:35:09;21.98;;;18.10;;
59468;SDS011;45277;52.768;18.262;2023-08-20T04:36:41;26.48;;;18.25;;
59468;SDS011;45277;52.768;18.262;2023-08-20T04:38:12;22.70;;;17.65;;
59468;SDS011;45277;52.768;18.262;2023-08-20T04:39:43;22.52;;;17.73;;
59468;SDS011;45277;52.768;18.262;2023-08-20T04:41:15;23.38;;;17.90;;
59468;SDS011;45277;52.768;18.262;2023-08-20T04:42:46;20.90;;;16.65;;
59468;SDS011;45277;52.768;18.262;2023-08-20T04:44:17;25.92;;;17.23;;
59468;SDS011;45277;52.768;18.262;2023-08-20T04:45:49;21.02;;;16.75;;
59468;SDS011;45277;52.768;18.262;2023-08-20T04:47:20;23.63;;;16.55;;
59468;SDS011;45277;52.768;18.262;2023-08-20T04:48:52;22.02;;;16.08;;
59468;SDS011;45277;52.768;18.262;2023-08-20T04:50:23;21.67;;;16.52;;
59468;SDS011;45277;52.768;18.262;2023-08-20T04:51:55;21.33;;;17.00;;
59468;SDS011;45277;52.768;18.262;2023-08-20T04:53:26;18.95;;;15.60;;
59468;SDS011;45277;52.768;18.262;2023-08-20T04:54:58;19.73;;;16.33;;
59468;SDS011;45277;52.768;18.262;2023-08-20T04:56:29;21.63;;;17.10;;
59468;SDS011;45277;52.768;18.262;2023-08-20T04:58:00;19.60;;;16.15;;
59468;SDS011;45277;52.768;18.262;2023-08-20T04:59:32;18.65;;;16.02;;
59468;SDS011;45277;52.768;18.262;2023-08-20T05:01:03;19.42;;;16.50;;
59468;SDS011;45277;52.768;18.262;2023-08-20T05:02:36;18.80;;;16.20;;
59468;SDS011;45277;52.768;18.262;2023-08-20T05:04:08;19.75;;;15.43;;
59468;SDS011;45277;52.768;18.262;2023-08-20T05:05:39;20.00;;;16.85;;
59468;SDS011;45277;52.768;18.262;2023-08-20T05:07:10;19.10;;;15.15;;
59468;SDS011;45277;52.768;18.262;2023-08-20T05:08:42;18.95;;;15.90;;
59468;SDS011;45277;52.768;18.262;2023-08-20T05:10:13;18.42;;;15.15;;
59468;SDS011;45277;52.768;18.262;2023-08-20T05:11:45;20.15;;;16.35;;
59468;SDS011;45277;52.768;18.262;2023-08-20T05:13:17;19.67;;;16.35;;
59468;SDS011;45277;52.768;18.262;2023-08-20T05:14:50;20.83;;;16.05;;
59468;SDS011;45277;52.768;18.262;2023-08-20T05:16:21;15.82;;;14.10;;
59468;SDS011;45277;52.768;18.262;2023-08-20T05:17:53;18.73;;;15.27;;
59468;SDS011;45277;52.768;18.262;2023-08-20T05:19:24;16.75;;;14.88;;
59468;SDS011;45277;52.768;18.262;2023-08-20T05:20:55;16.30;;;14.07;;
59468;SDS011;45277;52.768;18.262;2023-08-20T05:22:27;18.60;;;14.15;;
59468;SDS011;45277;52.768;18.262;2023-08-20T05:23:58;18.33;;;14.70;;
59468;SDS011;45277;52.768;18.262;2023-08-20T05:25:29;17.33;;;13.73;;
59468;SDS011;45277;52.768;18.262;2023-08-20T05:27:05;20.52;;;13.88;;
59468;SDS011;45277;52.768;18.262;2023-08-20T05:28:36;18.45;;;14.13;;
59468;SDS011;45277;52.768;18.262;2023-08-20T05:30:07;17.63;;;13.80;;
59468;SDS011;45277;52.768;18.262;2023-08-20T05:31:39;17.55;;;13.50;;
59468;SDS011;45277;52.768;18.262;2023-08-20T05:33:10;17.17;;;12.55;;
59468;SDS011;45277;52.768;18.262;2023-08-20T05:34:42;18.13;;;13.50;;
59468;SDS011;45277;52.768;18.262;2023-08-20T05:36:13;14.38;;;12.45;;
59468;SDS011;45277;52.768;18.262;2023-08-20T05:37:45;15.77;;;13.20;;
59468;SDS011;45277;52.768;18.262;2023-08-20T05:39:16;15.13;;;12.65;;
59468;SDS011;45277;52.768;18.262;2023-08-20T05:40:47;17.35;;;12.65;;
59468;SDS011;45277;52.768;18.262;2023-08-20T05:42:19;14.02;;;12.57;;
59468;SDS011;45277;52.768;18.262;2023-08-20T05:43:50;14.57;;;12.32;;
59468;SDS011;45277;52.768;18.262;2023-08-20T05:45:22;14.40;;;12.48;;
59468;SDS011;45277;52.768;18.262;2023-08-20T05:46:53;16.23;;;12.70;;
59468;SDS011;45277;52.768;18.262;2023-08-20T05:48:24;16.92;;;12.85;;
59468;SDS011;45277;52.768;18.262;2023-08-20T05:49:56;15.85;;;12.43;;
59468;SDS011;45277;52.768;18.262;2023-08-20T05:51:27;14.02;;;11.90;;
59468;SDS011;45277;52.768;18.262;2023-08-20T05:53:00;14.35;;;12.10;;
59468;SDS011;45277;52.768;18.262;2023-08-20T05:54:32;16.25;;;12.80;;
59468;SDS011;45277;52.768;18.262;2023-08-20T05:56:03;15.13;;;12.70;;
59468;SDS011;45277;52.768;18.262;2023-08-20T05:57:35;14.68;;;13.00;;
59468;SDS011;45277;52.768;18.262;2023-08-20T05:59:07;16.33;;;12.43;;
59468;SDS011;45277;52.768;18.262;2023-08-20T06:00:39;15.88;;;12.63;;
59468;SDS011;45277;52.768;18.262;2023-08-20T06:02:15;15.80;;;12.65;;
59468;SDS011;45277;52.768;18.262;2023-08-20T06:03:48;14.40;;;12.10;;
59468;SDS011;45277;52.768;18.262;2023-08-20T06:05:19;14.40;;;12.40;;
59468;SDS011;45277;52.768;18.262;2023-08-20T06:06:51;13.63;;;11.95;;
59468;SDS011;45277;52.768;18.262;2023-08-20T06:08:22;14.40;;;11.70;;
59468;SDS011;45277;52.768;18.262;2023-08-20T06:09:54;13.45;;;10.98;;
59468;SDS011;45277;52.768;18.262;2023-08-20T06:11:25;13.88;;;10.43;;
59468;SDS011;45277;52.768;18.262;2023-08-20T06:12:58;11.60;;;10.20;;
59468;SDS011;45277;52.768;18.262;2023-08-20T06:14:29;11.80;;;9.73;;
59468;SDS011;45277;52.768;18.262;2023-08-20T06:16:00;11.85;;;10.05;;
59468;SDS011;45277;52.768;18.262;2023-08-20T06:17:32;13.75;;;10.30;;
59468;SDS011;45277;52.768;18.262;2023-08-20T06:19:03;10.73;;;9.35;;
59468;SDS011;45277;52.768;18.262;2023-08-20T06:20:34;13.00;;;10.20;;
59468;SDS011;45277;52.768;18.262;2023-08-20T06:22:06;10.15;;;8.95;;
59468;SDS011;45277;52.768;18.262;2023-08-20T06:23:37;10.95;;;9.00;;
59468;SDS011;45277;52.768;18.262;2023-08-20T06:25:09;11.63;;;8.75;;
59468;SDS011;45277;52.768;18.262;2023-08-20T06:26:40;9.90;;;8.63;;
59468;SDS011;45277;52.768;18.262;2023-08-20T06:28:14;9.60;;;8.60;;
59468;SDS011;45277;52.768;18.262;2023-08-20T06:29:45;13.10;;;8.85;;
59468;SDS011;45277;52.768;18.262;2023-08-20T06:31:16;9.63;;;8.50;;
59468;SDS011;45277;52.768;18.262;2023-08-20T06:32:48;10.35;;;8.80;;
59468;SDS011;45277;52.768;18.262;2023-08-20T06:34:19;10.90;;;8.35;;
59468;SDS011;45277;52.768;18.262;2023-08-20T06:35:51;10.25;;;9.15;;
59468;SDS011;45277;52.768;18.262;2023-08-20T06:37:22;11.13;;;8.25;;
59468;SDS011;45277;52.768;18.262;2023-08-20T06:38:53;9.77;;;7.63;;
59468;SDS011;45277;52.768;18.262;2023-08-20T06:40:25;9.80;;;8.50;;
59468;SDS011;45277;52.768;18.262;2023-08-20T06:41:56;9.52;;;8.30;;
59468;SDS011;45277;52.768;18.262;2023-08-20T06:43:27;10.60;;;8.23;;
59468;SDS011;45277;52.768;18.262;2023-08-20T06:44:59;8.57;;;7.38;;
59468;SDS011;45277;52.768;18.262;2023-08-20T06:46:30;9.98;;;7.60;;
59468;SDS011;45277;52.768;18.262;2023-08-20T06:48:02;9.77;;;8.38;;
59468;SDS011;45277;52.768;18.262;2023-08-20T06:49:33;10.13;;;7.72;;
59468;SDS011;45277;52.768;18.262;2023-08-20T06:51:08;9.75;;;7.30;;
59468;SDS011;45277;52.768;18.262;2023-08-20T06:52:45;8.88;;;7.70;;
59468;SDS011;45277;52.768;18.262;2023-08-20T06:54:17;9.20;;;7.78;;
59468;SDS011;45277;52.768;18.262;2023-08-20T06:55:49;10.65;;;7.85;;
59468;SDS011;45277;52.768;18.262;2023-08-20T06:57:20;8.45;;;7.53;;
59468;SDS011;45277;52.768;18.262;2023-08-20T06:58:52;10.00;;;7.30;;
59468;SDS011;45277;52.768;18.262;2023-08-20T07:00:23;8.40;;;7.38;;
59468;SDS011;45277;52.768;18.262;2023-08-20T07:01:54;9.60;;;7.10;;
59468;SDS011;45277;52.768;18.262;2023-08-20T07:03:26;8.70;;;7.40;;
59468;SDS011;45277;52.768;18.262;2023-08-20T07:04:57;9.80;;;7.53;;
59468;SDS011;45277;52.768;18.262;2023-08-20T07:06:29;10.13;;;7.22;;
59468;SDS011;45277;52.768;18.262;2023-08-20T07:08:01;9.05;;;7.43;;
59468;SDS011;45277;52.768;18.262;2023-08-20T07:09:32;8.60;;;7.55;;
59468;SDS011;45277;52.768;18.262;2023-08-20T07:11:04;9.85;;;6.82;;
59468;SDS011;45277;52.768;18.262;2023-08-20T07:12:36;8.30;;;7.10;;
59468;SDS011;45277;52.768;18.262;2023-08-20T07:14:07;11.43;;;7.78;;
59468;SDS011;45277;52.768;18.262;2023-08-20T07:15:39;8.02;;;7.07;;
59468;SDS011;45277;52.768;18.262;2023-08-20T07:17:11;7.75;;;6.97;;
59468;SDS011;45277;52.768;18.262;2023-08-20T07:18:42;9.88;;;7.50;;
59468;SDS011;45277;52.768;18.262;2023-08-20T07:20:13;7.80;;;6.88;;
59468;SDS011;45277;52.768;18.262;2023-08-20T07:21:45;9.10;;;6.88;;
59468;SDS011;45277;52.768;18.262;2023-08-20T07:23:16;9.35;;;7.40;;
59468;SDS011;45277;52.768;18.262;2023-08-20T07:24:47;7.60;;;6.88;;
59468;SDS011;45277;52.768;18.262;2023-08-20T07:26:19;7.90;;;6.57;;
59468;SDS011;45277;52.768;18.262;2023-08-20T07:27:50;7.82;;;6.35;;
59468;SDS011;45277;52.768;18.262;2023-08-20T07:29:22;9.32;;;6.80;;
59468;SDS011;45277;52.768;18.262;2023-08-20T07:30:55;8.38;;;6.43;;
59468;SDS011;45277;52.768;18.262;2023-08-20T07:32:26;7.70;;;6.70;;
59468;SDS011;45277;52.768;18.262;2023-08-20T07:33:58;6.57;;;5.80;;
59468;SDS011;45277;52.768;18.262;2023-08-20T07:35:30;9.13;;;6.63;;
59468;SDS011;45277;52.768;18.262;2023-08-20T07:37:02;7.90;;;6.45;;
59468;SDS011;45277;52.768;18.262;2023-08-20T07:38:35;9.15;;;6.20;;
59468;SDS011;45277;52.768;18.262;2023-08-20T07:40:11;7.60;;;6.55;;
59468;SDS011;45277;52.768;18.262;2023-08-20T07:41:44;6.78;;;5.43;;
59468;SDS011;45277;52.768;18.262;2023-08-20T07:43:15;6.20;;;5.60;;
59468;SDS011;45277;52.768;18.262;2023-08-20T07:44:47;6.90;;;5.78;;
59468;SDS011;45277;52.768;18.262;2023-08-20T07:46:19;6.20;;;5.60;;
59468;SDS011;45277;52.768;18.262;2023-08-20T07:47:50;7.45;;;5.65;;
59468;SDS011;45277;52.768;18.262;2023-08-20T07:49:21;6.70;;;5.57;;
59468;SDS011;45277;52.768;18.262;2023-08-20T07:50:53;6.53;;;5.45;;
59468;SDS011;45277;52.768;18.262;2023-08-20T07:52:24;7.13;;;5.57;;
59468;SDS011;45277;52.768;18.262;2023-08-20T07:53:55;8.68;;;5.95;;
59468;SDS011;45277;52.768;18.262;2023-08-20T07:55:29;6.03;;;5.43;;
59468;SDS011;45277;52.768;18.262;2023-08-20T07:57:01;5.90;;;5.30;;
59468;SDS011;45277;52.768;18.262;2023-08-20T07:58:33;8.80;;;5.50;;
59468;SDS011;45277;52.768;18.262;2023-08-20T08:00:05;6.30;;;5.22;;
59468;SDS011;45277;52.768;18.262;2023-08-20T08:01:37;8.10;;;5.63;;
59468;SDS011;45277;52.768;18.262;2023-08-20T08:03:08;6.90;;;6.00;;
59468;SDS011;45277;52.768;18.262;2023-08-20T08:04:45;6.50;;;5.70;;
59468;SDS011;45277;52.768;18.262;2023-08-20T08:06:16;6.07;;;5.35;;
59468;SDS011;45277;52.768;18.262;2023-08-20T08:07:48;8.00;;;6.05;;
59468;SDS011;45277;52.768;18.262;2023-08-20T08:09:21;6.32;;;5.45;;
59468;SDS011;45277;52.768;18.262;2023-08-20T08:11:02;6.30;;;5.70;;
59468;SDS011;45277;52.768;18.262;2023-08-20T08:12:33;6.20;;;5.60;;
59468;SDS011;45277;52.768;18.262;2023-08-20T08:14:05;6.25;;;5.60;;
59468;SDS011;45277;52.768;18.262;2023-08-20T08:15:36;7.22;;;5.15;;
59468;SDS011;45277;52.768;18.262;2023-08-20T08:17:07;6.60;;;5.90;;
59468;SDS011;45277;52.768;18.262;2023-08-20T08:18:39;7.68;;;5.03;;
59468;SDS011;45277;52.768;18.262;2023-08-20T08:20:10;15.80;;;6.20;;
59468;SDS011;45277;52.768;18.262;2023-08-20T08:21:42;6.07;;;5.47;;
59468;SDS011;45277;52.768;18.262;2023-08-20T08:23:14;5.65;;;5.00;;
59468;SDS011;45277;52.768;18.262;2023-08-20T08:24:46;6.63;;;4.70;;
59468;SDS011;45277;52.768;18.262;2023-08-20T08:26:20;6.72;;;5.20;;
59468;SDS011;45277;52.768;18.262;2023-08-20T08:27:52;5.60;;;4.95;;
59468;SDS011;45277;52.768;18.262;2023-08-20T08:29:23;6.03;;;5.40;;
59468;SDS011;45277;52.768;18.262;2023-08-20T08:30:55;6.00;;;5.40;;
59468;SDS011;45277;52.768;18.262;2023-08-20T08:32:27;7.13;;;5.57;;
59468;SDS011;45277;52.768;18.262;2023-08-20T08:33:58;6.20;;;5.47;;
59468;SDS011;45277;52.768;18.262;2023-08-20T08:35:29;6.32;;;5.15;;
59468;SDS011;45277;52.768;18.262;2023-08-20T08:37:01;8.07;;;5.38;;
59468;SDS011;45277;52.768;18.262;2023-08-20T08:38:32;6.18;;;5.55;;
59468;SDS011;45277;52.768;18.262;2023-08-20T08:40:04;6.78;;;6.10;;
59468;SDS011;45277;52.768;18.262;2023-08-20T08:41:38;6.15;;;5.55;;
59468;SDS011;45277;52.768;18.262;2023-08-20T08:43:11;7.05;;;5.75;;
59468;SDS011;45277;52.768;18.262;2023-08-20T08:44:47;8.52;;;6.43;;
59468;SDS011;45277;52.768;18.262;2023-08-20T08:46:20;9.57;;;5.75;;
59468;SDS011;45277;52.768;18.262;2023-08-20T08:47:53;7.30;;;6.00;;
59468;SDS011;45277;52.768;18.262;2023-08-20T08:49:25;7.72;;;5.68;;
59468;SDS011;45277;52.768;18.262;2023-08-20T08:50:57;5.82;;;5.30;;
59468;SDS011;45277;52.768;18.262;2023-08-20T08:52:29;6.60;;;5.20;;
59468;SDS011;45277;52.768;18.262;2023-08-20T08:54:02;6.55;;;5.70;;
59468;SDS011;45277;52.768;18.262;2023-08-20T08:55:35;6.15;;;5.35;;
59468;SDS011;45277;52.768;18.262;2023-08-20T08:57:07;6.43;;;5.82;;
59468;SDS011;45277;52.768;18.262;2023-08-20T08:58:39;5.68;;;5.07;;
59468;SDS011;45277;52.768;18.262;2023-08-20T09:00:11;6.22;;;5.43;;